Fragaria, Washington
Current Conditions -  °F | °C
As of 6:55 AM on Sunday 23 Nov 2014 (Local Time) from KPWT Reporting Station
Overcast Overcast  
Wind Chill: 46°   Ceiling: 500
Heat Index: 46°   Visibility: 6mi
Dew Point: 46°   Wind: 3mph
Humidity: 100%   Direction: 270°W
Pressure: 30.11"   Gusts: NA
Location:  47.4285°N, 122.573°W
Report Text: KPWT 231455Z AUTO 27003KT 6SM BKN005 BKN018 OVC025 08/08 A3011 RMK AO1 LTG DSNT SW P0024 60027 57007
Loading
Personal Weather Stations






























Interactive Weather Map New forecast layout! Learn more

10-Day Weather Forecast

Advertisements
Track Severe Weather on mobile